sensor_id;sensor_type;location;lat;lon;timestamp;temperature;humidity
17891;DHT22;9071;48.220;14.480;2023-09-12T00:02:30;16.20;99.90
17891;DHT22;9071;48.220;14.480;2023-09-12T00:07:32;16.10;99.90
17891;DHT22;9071;48.220;14.480;2023-09-12T00:12:34;16.00;99.90
17891;DHT22;9071;48.220;14.480;2023-09-12T00:17:38;16.10;99.90
17891;DHT22;9071;48.220;14.480;2023-09-12T00:22:40;16.00;99.90
17891;DHT22;9071;48.220;14.480;2023-09-12T00:27:42;16.00;99.90
17891;DHT22;9071;48.220;14.480;2023-09-12T00:32:45;16.00;99.90
17891;DHT22;9071;48.220;14.480;2023-09-12T00:37:48;15.90;99.90
17891;DHT22;9071;48.220;14.480;2023-09-12T00:42:50;15.90;99.90
17891;DHT22;9071;48.220;14.480;2023-09-12T00:47:53;15.90;99.90
17891;DHT22;9071;48.220;14.480;2023-09-12T00:52:56;15.80;99.90
17891;DHT22;9071;48.220;14.480;2023-09-12T00:57:58;15.80;99.90
17891;DHT22;9071;48.220;14.480;2023-09-12T01:03:03;15.80;99.90
17891;DHT22;9071;48.220;14.480;2023-09-12T01:08:05;15.70;99.90
17891;DHT22;9071;48.220;14.480;2023-09-12T01:13:07;15.70;99.90
17891;DHT22;9071;48.220;14.480;2023-09-12T01:18:11;15.70;99.90
17891;DHT22;9071;48.220;14.480;2023-09-12T01:23:29;15.70;99.90
17891;DHT22;9071;48.220;14.480;2023-09-12T01:28:39;15.60;99.90
17891;DHT22;9071;48.220;14.480;2023-09-12T01:33:43;15.60;99.90
17891;DHT22;9071;48.220;14.480;2023-09-12T01:38:45;15.50;99.90
17891;DHT22;9071;48.220;14.480;2023-09-12T01:43:50;15.40;99.90
17891;DHT22;9071;48.220;14.480;2023-09-12T01:48:54;15.40;99.90
17891;DHT22;9071;48.220;14.480;2023-09-12T01:53:57;15.30;99.90
17891;DHT22;9071;48.220;14.480;2023-09-12T01:59:02;15.30;99.90
17891;DHT22;9071;48.220;14.480;2023-09-12T02:04:04;15.20;99.90
17891;DHT22;9071;48.220;14.480;2023-09-12T02:09:09;15.30;99.90
17891;DHT22;9071;48.220;14.480;2023-09-12T02:14:12;15.20;99.90
17891;DHT22;9071;48.220;14.480;2023-09-12T02:19:14;15.20;99.90
17891;DHT22;9071;48.220;14.480;2023-09-12T02:24:16;15.20;99.90
17891;DHT22;9071;48.220;14.480;2023-09-12T02:29:23;15.20;99.90
17891;DHT22;9071;48.220;14.480;2023-09-12T02:34:25;15.10;99.90
17891;DHT22;9071;48.220;14.480;2023-09-12T02:39:27;15.10;99.90
17891;DHT22;9071;48.220;14.480;2023-09-12T02:44:30;15.00;99.90
17891;DHT22;9071;48.220;14.480;2023-09-12T02:49:33;15.00;99.90
17891;DHT22;9071;48.220;14.480;2023-09-12T02:54:35;15.00;99.90
17891;DHT22;9071;48.220;14.480;2023-09-12T02:59:38;15.00;99.90
17891;DHT22;9071;48.220;14.480;2023-09-12T03:04:40;15.00;99.90
17891;DHT22;9071;48.220;14.480;2023-09-12T03:09:42;15.00;99.90
17891;DHT22;9071;48.220;14.480;2023-09-12T03:14:46;15.00;99.90
17891;DHT22;9071;48.220;14.480;2023-09-12T03:19:48;15.10;99.90
17891;DHT22;9071;48.220;14.480;2023-09-12T03:24:50;15.00;99.90
17891;DHT22;9071;48.220;14.480;2023-09-12T03:29:53;15.00;99.90
17891;DHT22;9071;48.220;14.480;2023-09-12T03:34:55;15.00;99.90
17891;DHT22;9071;48.220;14.480;2023-09-12T03:39:57;14.90;99.90
17891;DHT22;9071;48.220;14.480;2023-09-12T03:45:01;14.70;99.90
17891;DHT22;9071;48.220;14.480;2023-09-12T03:50:04;14.70;99.90
17891;DHT22;9071;48.220;14.480;2023-09-12T03:55:07;14.60;99.90
17891;DHT22;9071;48.220;14.480;2023-09-12T04:00:12;14.60;99.90
17891;DHT22;9071;48.220;14.480;2023-09-12T04:05:14;14.70;99.90
17891;DHT22;9071;48.220;14.480;2023-09-12T04:10:17;14.80;99.90
17891;DHT22;9071;48.220;14.480;2023-09-12T04:15:21;14.70;99.90
17891;DHT22;9071;48.220;14.480;2023-09-12T04:20:23;14.80;99.90
17891;DHT22;9071;48.220;14.480;2023-09-12T04:25:25;14.70;99.90
17891;DHT22;9071;48.220;14.480;2023-09-12T04:30:29;14.60;99.90
17891;DHT22;9071;48.220;14.480;2023-09-12T04:35:33;14.60;99.90
17891;DHT22;9071;48.220;14.480;2023-09-12T04:40:35;14.60;99.90
17891;DHT22;9071;48.220;14.480;2023-09-12T04:45:38;14.70;99.90
17891;DHT22;9071;48.220;14.480;2023-09-12T04:50:41;14.60;99.90
17891;DHT22;9071;48.220;14.480;2023-09-12T04:55:43;14.60;99.90
17891;DHT22;9071;48.220;14.480;2023-09-12T05:00:46;14.70;99.90
17891;DHT22;9071;48.220;14.480;2023-09-12T05:05:49;14.90;99.90
17891;DHT22;9071;48.220;14.480;2023-09-12T05:10:51;14.90;99.90
17891;DHT22;9071;48.220;14.480;2023-09-12T05:15:55;15.10;99.90
17891;DHT22;9071;48.220;14.480;2023-09-12T05:20:57;15.20;99.90
17891;DHT22;9071;48.220;14.480;2023-09-12T05:25:59;15.40;99.90
17891;DHT22;9071;48.220;14.480;2023-09-12T05:31:03;15.70;99.90
17891;DHT22;9071;48.220;14.480;2023-09-12T05:36:05;16.50;99.90
17891;DHT22;9071;48.220;14.480;2023-09-12T05:41:07;17.30;99.90
17891;DHT22;9071;48.220;14.480;2023-09-12T05:46:11;18.30;99.90
17891;DHT22;9071;48.220;14.480;2023-09-12T05:51:13;18.90;99.90
17891;DHT22;9071;48.220;14.480;2023-09-12T05:56:15;20.00;99.90
17891;DHT22;9071;48.220;14.480;2023-09-12T06:01:18;22.00;99.90
17891;DHT22;9071;48.220;14.480;2023-09-12T06:06:20;23.80;99.90
17891;DHT22;9071;48.220;14.480;2023-09-12T06:11:24;25.30;99.90
17891;DHT22;9071;48.220;14.480;2023-09-12T06:16:27;26.30;99.90
17891;DHT22;9071;48.220;14.480;2023-09-12T06:21:30;27.30;99.90
17891;DHT22;9071;48.220;14.480;2023-09-12T06:26:32;27.20;99.90
17891;DHT22;9071;48.220;14.480;2023-09-12T06:31:37;28.20;99.90
17891;DHT22;9071;48.220;14.480;2023-09-12T06:36:39;28.50;99.90
17891;DHT22;9071;48.220;14.480;2023-09-12T06:41:42;29.30;99.90
17891;DHT22;9071;48.220;14.480;2023-09-12T06:46:45;29.50;99.90
17891;DHT22;9071;48.220;14.480;2023-09-12T06:51:47;30.00;99.90
17891;DHT22;9071;48.220;14.480;2023-09-12T06:56:49;29.40;99.90
17891;DHT22;9071;48.220;14.480;2023-09-12T07:01:53;30.50;99.90
17891;DHT22;9071;48.220;14.480;2023-09-12T07:06:55;30.90;99.90
17891;DHT22;9071;48.220;14.480;2023-09-12T07:11:57;30.20;99.90
17891;DHT22;9071;48.220;14.480;2023-09-12T07:17:01;31.20;99.90
17891;DHT22;9071;48.220;14.480;2023-09-12T07:22:03;31.10;99.90
17891;DHT22;9071;48.220;14.480;2023-09-12T07:27:05;31.40;99.90
17891;DHT22;9071;48.220;14.480;2023-09-12T07:32:09;31.50;99.90
17891;DHT22;9071;48.220;14.480;2023-09-12T07:37:11;31.40;99.90
17891;DHT22;9071;48.220;14.480;2023-09-12T07:42:13;31.20;99.90
17891;DHT22;9071;48.220;14.480;2023-09-12T07:47:17;32.00;99.90
17891;DHT22;9071;48.220;14.480;2023-09-12T07:52:19;33.50;99.90
17891;DHT22;9071;48.220;14.480;2023-09-12T07:57:21;33.70;99.90
17891;DHT22;9071;48.220;14.480;2023-09-12T08:02:25;33.60;99.90
17891;DHT22;9071;48.220;14.480;2023-09-12T08:07:27;33.90;99.90
17891;DHT22;9071;48.220;14.480;2023-09-12T08:12:29;34.10;99.90
17891;DHT22;9071;48.220;14.480;2023-09-12T08:17:32;34.20;99.90
17891;DHT22;9071;48.220;14.480;2023-09-12T08:22:34;34.10;99.90
17891;DHT22;9071;48.220;14.480;2023-09-12T08:27:37;34.10;99.90
17891;DHT22;9071;48.220;14.480;2023-09-12T08:32:40;33.90;99.90
17891;DHT22;9071;48.220;14.480;2023-09-12T08:37:44;33.70;99.90
17891;DHT22;9071;48.220;14.480;2023-09-12T08:42:47;33.00;99.90
17891;DHT22;9071;48.220;14.480;2023-09-12T08:47:53;32.80;99.90
17891;DHT22;9071;48.220;14.480;2023-09-12T08:52:56;32.50;99.90
17891;DHT22;9071;48.220;14.480;2023-09-12T08:57:59;30.80;99.90
17891;DHT22;9071;48.220;14.480;2023-09-12T09:03:03;28.80;99.90
17891;DHT22;9071;48.220;14.480;2023-09-12T09:08:06;27.70;99.90
17891;DHT22;9071;48.220;14.480;2023-09-12T09:13:10;26.80;99.90
17891;DHT22;9071;48.220;14.480;2023-09-12T09:18:13;26.30;99.90
17891;DHT22;9071;48.220;14.480;2023-09-12T09:23:15;26.30;99.90
17891;DHT22;9071;48.220;14.480;2023-09-12T09:28:18;26.40;99.90
17891;DHT22;9071;48.220;14.480;2023-09-12T09:33:22;26.50;99.90
17891;DHT22;9071;48.220;14.480;2023-09-12T09:38:25;26.30;99.90
17891;DHT22;9071;48.220;14.480;2023-09-12T09:43:27;26.40;99.90
17891;DHT22;9071;48.220;14.480;2023-09-12T09:48:34;26.80;99.90
17891;DHT22;9071;48.220;14.480;2023-09-12T09:53:39;27.10;99.90
17891;DHT22;9071;48.220;14.480;2023-09-12T09:58:46;27.30;99.90
17891;DHT22;9071;48.220;14.480;2023-09-12T10:03:50;27.20;99.90
17891;DHT22;9071;48.220;14.480;2023-09-12T10:08:54;27.00;99.90
17891;DHT22;9071;48.220;14.480;2023-09-12T10:13:57;27.20;99.90
17891;DHT22;9071;48.220;14.480;2023-09-12T10:19:09;27.20;99.90
17891;DHT22;9071;48.220;14.480;2023-09-12T10:24:12;27.20;99.90
17891;DHT22;9071;48.220;14.480;2023-09-12T10:29:16;27.30;99.90
17891;DHT22;9071;48.220;14.480;2023-09-12T10:34:20;27.60;99.90
17891;DHT22;9071;48.220;14.480;2023-09-12T10:39:24;27.70;99.90
17891;DHT22;9071;48.220;14.480;2023-09-12T10:44:27;27.90;99.90
17891;DHT22;9071;48.220;14.480;2023-09-12T10:49:31;27.90;99.90
17891;DHT22;9071;48.220;14.480;2023-09-12T10:54:38;28.20;99.90
17891;DHT22;9071;48.220;14.480;2023-09-12T11:00:10;28.20;99.90
17891;DHT22;9071;48.220;14.480;2023-09-12T11:05:39;28.40;99.90
17891;DHT22;9071;48.220;14.480;2023-09-12T11:11:18;28.80;99.90
17891;DHT22;9071;48.220;14.480;2023-09-12T11:16:21;29.20;99.90
17891;DHT22;9071;48.220;14.480;2023-09-12T11:21:33;29.20;99.90
17891;DHT22;9071;48.220;14.480;2023-09-12T11:26:36;29.50;99.90
17891;DHT22;9071;48.220;14.480;2023-09-12T11:31:55;29.50;99.90
17891;DHT22;9071;48.220;14.480;2023-09-12T11:37:00;29.60;99.90
17891;DHT22;9071;48.220;14.480;2023-09-12T11:42:04;29.70;99.90
17891;DHT22;9071;48.220;14.480;2023-09-12T11:47:10;29.60;99.90
17891;DHT22;9071;48.220;14.480;2023-09-12T11:52:15;29.60;99.90
17891;DHT22;9071;48.220;14.480;2023-09-12T11:57:18;29.60;99.90
17891;DHT22;9071;48.220;14.480;2023-09-12T12:02:20;29.50;99.90
17891;DHT22;9071;48.220;14.480;2023-09-12T12:07:24;29.60;99.90
17891;DHT22;9071;48.220;14.480;2023-09-12T12:12:26;29.70;99.90
17891;DHT22;9071;48.220;14.480;2023-09-12T12:17:28;29.30;99.90
17891;DHT22;9071;48.220;14.480;2023-09-12T12:22:32;29.30;99.90
17891;DHT22;9071;48.220;14.480;2023-09-12T12:27:36;29.50;99.90
17891;DHT22;9071;48.220;14.480;2023-09-12T12:32:40;29.70;99.90
17891;DHT22;9071;48.220;14.480;2023-09-12T12:37:43;29.60;99.90
17891;DHT22;9071;48.220;14.480;2023-09-12T12:42:47;29.40;99.90
17891;DHT22;9071;48.220;14.480;2023-09-12T12:47:51;29.40;99.90
17891;DHT22;9071;48.220;14.480;2023-09-12T12:52:55;29.60;99.90
17891;DHT22;9071;48.220;14.480;2023-09-12T12:57:57;29.70;99.90
17891;DHT22;9071;48.220;14.480;2023-09-12T13:02:59;29.60;99.90
17891;DHT22;9071;48.220;14.480;2023-09-12T13:08:03;29.50;99.90
17891;DHT22;9071;48.220;14.480;2023-09-12T13:13:05;29.60;99.90
17891;DHT22;9071;48.220;14.480;2023-09-12T13:18:07;29.70;99.90
17891;DHT22;9071;48.220;14.480;2023-09-12T13:23:11;29.80;99.90
17891;DHT22;9071;48.220;14.480;2023-09-12T13:28:13;29.80;99.90
17891;DHT22;9071;48.220;14.480;2023-09-12T13:33:15;29.80;99.90
17891;DHT22;9071;48.220;14.480;2023-09-12T13:38:18;29.80;99.90
17891;DHT22;9071;48.220;14.480;2023-09-12T13:43:20;29.80;99.90
17891;DHT22;9071;48.220;14.480;2023-09-12T13:48:23;29.70;99.90
17891;DHT22;9071;48.220;14.480;2023-09-12T13:53:28;29.50;99.90
17891;DHT22;9071;48.220;14.480;2023-09-12T13:58:30;29.60;99.90
17891;DHT22;9071;48.220;14.480;2023-09-12T14:03:32;29.50;99.90
17891;DHT22;9071;48.220;14.480;2023-09-12T14:08:35;29.60;99.90
17891;DHT22;9071;48.220;14.480;2023-09-12T14:13:37;29.50;99.90
17891;DHT22;9071;48.220;14.480;2023-09-12T14:18:39;29.40;99.90
17891;DHT22;9071;48.220;14.480;2023-09-12T14:23:43;29.50;99.90
17891;DHT22;9071;48.220;14.480;2023-09-12T14:28:45;29.60;99.90
17891;DHT22;9071;48.220;14.480;2023-09-12T14:33:47;29.70;99.90
17891;DHT22;9071;48.220;14.480;2023-09-12T14:38:50;29.60;99.90
17891;DHT22;9071;48.220;14.480;2023-09-12T14:43:52;29.30;99.90
17891;DHT22;9071;48.220;14.480;2023-09-12T14:48:54;29.00;99.90
17891;DHT22;9071;48.220;14.480;2023-09-12T14:53:58;28.60;99.90
17891;DHT22;9071;48.220;14.480;2023-09-12T14:59:00;28.30;99.90
17891;DHT22;9071;48.220;14.480;2023-09-12T15:04:02;28.10;99.90
17891;DHT22;9071;48.220;14.480;2023-09-12T15:09:06;27.90;99.90
17891;DHT22;9071;48.220;14.480;2023-09-12T15:14:08;27.80;99.90
17891;DHT22;9071;48.220;14.480;2023-09-12T15:19:10;28.00;99.90
17891;DHT22;9071;48.220;14.480;2023-09-12T15:24:13;28.20;99.90
17891;DHT22;9071;48.220;14.480;2023-09-12T15:29:15;28.40;99.90
17891;DHT22;9071;48.220;14.480;2023-09-12T15:34:17;28.50;99.90
17891;DHT22;9071;48.220;14.480;2023-09-12T15:39:21;28.30;99.90
17891;DHT22;9071;48.220;14.480;2023-09-12T15:44:23;28.30;99.90
17891;DHT22;9071;48.220;14.480;2023-09-12T15:49:27;28.40;99.90
17891;DHT22;9071;48.220;14.480;2023-09-12T15:54:30;28.30;99.90
17891;DHT22;9071;48.220;14.480;2023-09-12T15:59:32;28.20;99.90
17891;DHT22;9071;48.220;14.480;2023-09-12T16:04:34;28.00;99.90
17891;DHT22;9071;48.220;14.480;2023-09-12T16:09:38;27.70;99.90
17891;DHT22;9071;48.220;14.480;2023-09-12T16:14:40;27.60;99.90
17891;DHT22;9071;48.220;14.480;2023-09-12T16:19:42;27.40;99.90
17891;DHT22;9071;48.220;14.480;2023-09-12T16:24:45;27.20;99.90
17891;DHT22;9071;48.220;14.480;2023-09-12T16:29:48;26.90;99.90
17891;DHT22;9071;48.220;14.480;2023-09-12T16:34:50;26.70;99.90
17891;DHT22;9071;48.220;14.480;2023-09-12T16:39:54;26.60;99.90
17891;DHT22;9071;48.220;14.480;2023-09-12T16:44:58;26.30;99.90
17891;DHT22;9071;48.220;14.480;2023-09-12T16:50:01;25.90;99.90
17891;DHT22;9071;48.220;14.480;2023-09-12T16:55:05;25.60;99.90
17891;DHT22;9071;48.220;14.480;2023-09-12T17:00:08;25.30;99.90
17891;DHT22;9071;48.220;14.480;2023-09-12T17:05:11;25.10;99.90
17891;DHT22;9071;48.220;14.480;2023-09-12T17:10:14;24.80;99.90
17891;DHT22;9071;48.220;14.480;2023-09-12T17:15:17;24.40;99.90
17891;DHT22;9071;48.220;14.480;2023-09-12T17:20:19;24.00;99.90
17891;DHT22;9071;48.220;14.480;2023-09-12T17:25:22;23.50;99.90
17891;DHT22;9071;48.220;14.480;2023-09-12T17:30:24;23.10;99.90
17891;DHT22;9071;48.220;14.480;2023-09-12T17:35:27;22.80;99.90
17891;DHT22;9071;48.220;14.480;2023-09-12T17:40:30;22.40;99.90
17891;DHT22;9071;48.220;14.480;2023-09-12T17:45:32;22.10;99.90
17891;DHT22;9071;48.220;14.480;2023-09-12T17:50:35;21.90;99.90
17891;DHT22;9071;48.220;14.480;2023-09-12T17:55:39;21.70;99.90
17891;DHT22;9071;48.220;14.480;2023-09-12T18:00:41;21.60;99.90
17891;DHT22;9071;48.220;14.480;2023-09-12T18:05:45;21.30;99.90
17891;DHT22;9071;48.220;14.480;2023-09-12T18:10:49;21.10;99.90
17891;DHT22;9071;48.220;14.480;2023-09-12T18:15:51;20.80;99.90
17891;DHT22;9071;48.220;14.480;2023-09-12T18:20:54;20.70;99.90
17891;DHT22;9071;48.220;14.480;2023-09-12T18:26:00;20.60;99.90
17891;DHT22;9071;48.220;14.480;2023-09-12T18:31:05;20.60;99.90
17891;DHT22;9071;48.220;14.480;2023-09-12T18:36:08;20.40;99.90
17891;DHT22;9071;48.220;14.480;2023-09-12T18:41:14;20.20;99.90
17891;DHT22;9071;48.220;14.480;2023-09-12T18:46:17;20.00;99.90
17891;DHT22;9071;48.220;14.480;2023-09-12T18:51:19;19.80;99.90
17891;DHT22;9071;48.220;14.480;2023-09-12T18:56:23;19.60;99.90
17891;DHT22;9071;48.220;14.480;2023-09-12T19:01:25;19.50;99.90
17891;DHT22;9071;48.220;14.480;2023-09-12T19:06:28;19.50;99.90
17891;DHT22;9071;48.220;14.480;2023-09-12T19:11:31;19.30;99.90
17891;DHT22;9071;48.220;14.480;2023-09-12T19:16:33;19.20;99.90
17891;DHT22;9071;48.220;14.480;2023-09-12T19:21:35;19.10;99.90
17891;DHT22;9071;48.220;14.480;2023-09-12T19:26:39;19.00;99.90
17891;DHT22;9071;48.220;14.480;2023-09-12T19:31:42;18.90;99.90
17891;DHT22;9071;48.220;14.480;2023-09-12T19:36:44;18.80;99.90
17891;DHT22;9071;48.220;14.480;2023-09-12T19:41:47;18.70;99.90
17891;DHT22;9071;48.220;14.480;2023-09-12T19:46:49;18.60;99.90
17891;DHT22;9071;48.220;14.480;2023-09-12T19:51:52;18.50;99.90
17891;DHT22;9071;48.220;14.480;2023-09-12T19:56:55;18.60;99.90
17891;DHT22;9071;48.220;14.480;2023-09-12T20:01:57;18.50;99.90
17891;DHT22;9071;48.220;14.480;2023-09-12T20:06:59;18.50;99.90
17891;DHT22;9071;48.220;14.480;2023-09-12T20:12:03;18.60;99.90
17891;DHT22;9071;48.220;14.480;2023-09-12T20:17:05;18.60;99.90
17891;DHT22;9071;48.220;14.480;2023-09-12T20:22:07;18.40;99.90
17891;DHT22;9071;48.220;14.480;2023-09-12T20:27:11;18.20;99.90
17891;DHT22;9071;48.220;14.480;2023-09-12T20:32:13;18.20;99.90
17891;DHT22;9071;48.220;14.480;2023-09-12T20:37:15;18.20;99.90
17891;DHT22;9071;48.220;14.480;2023-09-12T20:42:18;18.10;99.90
17891;DHT22;9071;48.220;14.480;2023-09-12T20:47:20;18.00;99.90
17891;DHT22;9071;48.220;14.480;2023-09-12T20:52:23;17.90;99.90
17891;DHT22;9071;48.220;14.480;2023-09-12T20:57:27;17.70;99.90
17891;DHT22;9071;48.220;14.480;2023-09-12T21:02:29;17.60;99.90
17891;DHT22;9071;48.220;14.480;2023-09-12T21:07:31;17.60;99.90
17891;DHT22;9071;48.220;14.480;2023-09-12T21:12:34;17.60;99.90
17891;DHT22;9071;48.220;14.480;2023-09-12T21:17:37;17.50;99.90
17891;DHT22;9071;48.220;14.480;2023-09-12T21:22:39;17.50;99.90
17891;DHT22;9071;48.220;14.480;2023-09-12T21:27:42;17.50;99.90
17891;DHT22;9071;48.220;14.480;2023-09-12T21:32:44;17.40;99.90
17891;DHT22;9071;48.220;14.480;2023-09-12T21:37:47;17.40;99.90
17891;DHT22;9071;48.220;14.480;2023-09-12T21:42:50;17.50;99.90
17891;DHT22;9071;48.220;14.480;2023-09-12T21:47:52;17.50;99.90
17891;DHT22;9071;48.220;14.480;2023-09-12T21:52:55;17.50;99.90
17891;DHT22;9071;48.220;14.480;2023-09-12T21:57:58;17.60;99.90
17891;DHT22;9071;48.220;14.480;2023-09-12T22:03:00;17.50;99.90
17891;DHT22;9071;48.220;14.480;2023-09-12T22:08:04;17.50;99.90
17891;DHT22;9071;48.220;14.480;2023-09-12T22:13:08;17.50;99.90
17891;DHT22;9071;48.220;14.480;2023-09-12T22:18:10;17.50;99.90
17891;DHT22;9071;48.220;14.480;2023-09-12T22:23:12;17.50;99.90
17891;DHT22;9071;48.220;14.480;2023-09-12T22:28:16;17.40;99.90
17891;DHT22;9071;48.220;14.480;2023-09-12T22:33:18;17.40;99.90
17891;DHT22;9071;48.220;14.480;2023-09-12T22:38:20;17.40;99.90
17891;DHT22;9071;48.220;14.480;2023-09-12T22:43:23;17.40;99.90
17891;DHT22;9071;48.220;14.480;2023-09-12T22:48:25;17.30;99.90
17891;DHT22;9071;48.220;14.480;2023-09-12T22:53:28;17.30;99.90
17891;DHT22;9071;48.220;14.480;2023-09-12T22:58:31;17.30;99.90
17891;DHT22;9071;48.220;14.480;2023-09-12T23:03:33;17.40;99.90
17891;DHT22;9071;48.220;14.480;2023-09-12T23:08:35;17.40;99.90
17891;DHT22;9071;48.220;14.480;2023-09-12T23:13:39;17.30;99.90
17891;DHT22;9071;48.220;14.480;2023-09-12T23:18:41;17.20;99.90
17891;DHT22;9071;48.220;14.480;2023-09-12T23:23:43;17.10;99.90
17891;DHT22;9071;48.220;14.480;2023-09-12T23:28:46;17.20;99.90
17891;DHT22;9071;48.220;14.480;2023-09-12T23:33:48;17.30;99.90
17891;DHT22;9071;48.220;14.480;2023-09-12T23:38:50;17.30;99.90
17891;DHT22;9071;48.220;14.480;2023-09-12T23:43:54;17.30;99.90
17891;DHT22;9071;48.220;14.480;2023-09-12T23:48:56;17.30;99.90
17891;DHT22;9071;48.220;14.480;2023-09-12T23:54:00;17.40;99.90
17891;DHT22;9071;48.220;14.480;2023-09-12T23:59:03;17.30;99.90
